Archival Weather

Norman Y Mineta San Jose Intl

San Jose, California (KSJC)

Report from: Wednesday, January 31, 2024 5:53 AM PST
Current time: Monday, June 24, 2024 4:23 AM PDT

Current weather – Weather history – Daily summaries
Weather forecast

Temperature15.6°C (60.1°F)
Dew point4.4°C (39.9°F)
Winds 14 kts (7.2 m/s, 16.1 mph) Southeast (130°)
Visibility10 mi. (16.1 km)
Clouds Scattered clouds 4,100 ft. (1,250 m)
Altimeter29.80 in.Hg (1009 mB)
Relative humidity47 %
Density altitude332 ft. (101 m)
Sea-level pressure100.9 kPa (1009 mB, 29.80 in.Hg)
Remarks System requires maintenance
Automated weather observing station with precipitation discriminator
Flight conditions Visual Meteorological Conditions
Raw dataKSJC 311353Z 13014KT 10SM SCT041 16/04 A2980 RMK AO2 SLP092 T01560044 $
An error has occurred. This application may no longer respond until reloaded. Reload 🗙